Campbell Foss — WDC7754 — position and weather

sailwx.info

Track history (hours):
 
Tides and Currents Weather Stations Pressure Air Temp Water Temp Dewpoint Dewpoint Depression Visibility Wind Speed Wind Dir Waves Ship Positions

Campbell Foss

Owner: Foss Maritime Co., Seattle, WA. More information available from US FCC via Universal Licensing System and Coast Guard Vessel Documentation Center.

Last reported at 2017-Oct-17 07:29 UTC. Time now 2017-Oct-17 08:00 UTC.
Position N 33°44' W 118°10'.

Length 23 m; draft 16 m.

Type: Tug. MMSI: 367076360.

Date/timePositionNaut miles runAvg speedWind from/ knotsBaromVisibWave heightAir tempDewpointWater temp
2017-Oct-17 07:29N 33°44' W 118°10'4 7.7
2017-Oct-17 07:00N 33°43' W 118°14'3 5.4
2017-Oct-17 06:30N 33°45' W 118°16'1 1.8
2017-Oct-17 06:00N 33°46' W 118°16'0 0.6
2017-Oct-17 05:30N 33°46' W 118°15'2 3.6
2017-Oct-17 05:00N 33°46' W 118°13'0 0.0
2017-Oct-17 04:17N 33°46' W 118°13'0 0.0
2017-Oct-17 03:56N 33°46' W 118°13'1 2.9
2017-Oct-17 03:30N 33°46' W 118°15'1 2.1
2017-Oct-17 03:00N 33°46' W 118°13'4 7.8
2017-Oct-17 02:30N 33°44' W 118°10'3 3.2
2017-Oct-17 01:24N 33°40' W 118°11'4 9.0
2017-Oct-17 01:00N 33°44' W 118°12'3 5.5
2017-Oct-17 00:30N 33°46' W 118°13'1 2.1
2017-Oct-17 00:00N 33°45' W 118°13'2 4.2
2017-Oct-16 23:28N 33°43' W 118°11'2 4.7
2017-Oct-16 23:00N 33°43' W 118°14'1 2.8
2017-Oct-16 22:30N 33°44' W 118°15'0 0.0
2017-Oct-16 22:00N 33°44' W 118°15'0 0.0
2017-Oct-16 21:30N 33°44' W 118°15'0 0.0
2017-Oct-16 21:00N 33°44' W 118°15'0 0.0
2017-Oct-16 20:30N 33°44' W 118°15'1 1.4
2017-Oct-16 20:00N 33°43' W 118°16'2 4.5
2017-Oct-16 19:30N 33°46' W 118°16'1 1.7
2017-Oct-16 19:00N 33°45' W 118°17'0 0.5
2017-Oct-16 18:30N 33°45' W 118°16'2 3.1
2017-Oct-16 18:00N 33°44' W 118°16'2 4.1
2017-Oct-16 17:30N 33°43' W 118°14'2 5.0
2017-Oct-16 17:00N 33°46' W 118°13'0 0.0
2017-Oct-16 16:30N 33°46' W 118°13'2 3.7
2017-Oct-16 16:00N 33°46' W 118°15'2 3.1
2017-Oct-16 15:30N 33°44' W 118°17'3 5.5
2017-Oct-16 15:00N 33°43' W 118°14'0 0.0
2017-Oct-16 13:42N 33°43' W 118°14'1 2.9
2017-Oct-16 13:24N 33°44' W 118°13'1 3.1
2017-Oct-16 12:59N 33°45' W 118°14'0 0.1
2017-Oct-16 12:29N 33°45' W 118°14'0 0.1
2017-Oct-16 11:58N 33°45' W 118°14'0 0.0
2017-Oct-16 11:30N 33°45' W 118°14'0 0.0
2017-Oct-16 10:59N 33°45' W 118°14'0 0.0
2017-Oct-16 10:30N 33°45' W 118°14'0 0.0
2017-Oct-16 09:59N 33°45' W 118°14'1 1.3
2017-Oct-16 08:59N 33°45' W 118°13'2 2.1
2017-Oct-16 08:15N 33°43' W 118°11'0 0.2
2017-Oct-16 07:58N 33°44' W 118°11'2 4.6
2017-Oct-16 07:30N 33°45' W 118°13'0 0.2
2017-Oct-16 07:00N 33°45' W 118°13'0 0.0
2017-Oct-16 06:30N 33°45' W 118°13'0 0.0
2017-Oct-16 06:00N 33°45' W 118°13'0 0.0
2017-Oct-16 05:30N 33°45' W 118°13'0 0.0
2017-Oct-16 05:00N 33°45' W 118°13'0 0.9
2017-Oct-16 04:30N 33°46' W 118°13'0 0.0
2017-Oct-16 03:59N 33°46' W 118°13'0 0.0
2017-Oct-16 03:30N 33°46' W 118°13'1 1.5
2017-Oct-16 03:00N 33°45' W 118°13'1 1.4
2017-Oct-16 02:30N 33°46' W 118°13'1 1.1
2017-Oct-16 02:00N 33°45' W 118°13'2 3.8
2017-Oct-16 01:30N 33°43' W 118°14'1 2.4
2017-Oct-16 01:00N 33°44' W 118°13'2 4.5
2017-Oct-16 00:30N 33°46' W 118°14'0 0.8
2017-Oct-16 00:00N 33°46' W 118°14'0 0.0
2017-Oct-15 23:30N 33°46' W 118°14'2 3.0
2017-Oct-15 23:00N 33°45' W 118°16'0 0.2
2017-Oct-15 22:30N 33°45' W 118°16'2 3.8
2017-Oct-15 22:00N 33°43' W 118°16'1 1.6
2017-Oct-15 21:30N 33°43' W 118°15'1 1.2
2017-Oct-15 21:00N 33°43' W 118°16'0 0.0
2017-Oct-15 20:30N 33°43' W 118°16'0 0.0
2017-Oct-15 20:00N 33°43' W 118°16'0 0.0
2017-Oct-15 19:30N 33°43' W 118°16'1 1.2
2017-Oct-15 19:00N 33°43' W 118°16'2 5.0
2017-Oct-15 18:30N 33°45' W 118°16'0 0.2
2017-Oct-15 18:00N 33°45' W 118°17'1 2.3
2017-Oct-15 17:30N 33°46' W 118°15'2 3.5
2017-Oct-15 17:00N 33°46' W 118°13'0 0.0
2017-Oct-15 16:30N 33°46' W 118°13'0 0.0
2017-Oct-15 16:00N 33°46' W 118°13'3 5.4
2017-Oct-15 15:30N 33°43' W 118°14'2 4.3
2017-Oct-15 15:00N 33°44' W 118°16'0 0.3
2017-Oct-15 14:00N 33°44' W 118°17'0 0.0
2017-Oct-15 13:30N 33°44' W 118°17'0 0.8
2017-Oct-15 13:00N 33°45' W 118°16'0 0.2
2017-Oct-15 12:30N 33°45' W 118°16'0 0.2
2017-Oct-15 12:00N 33°45' W 118°16'2 4.6
2017-Oct-15 11:30N 33°43' W 118°15'2 4.5
2017-Oct-15 11:00N 33°45' W 118°16'1 2.3
2017-Oct-15 10:30N 33°46' W 118°16'0 0.0
2017-Oct-15 10:00N 33°46' W 118°16'0 0.0
2017-Oct-15 09:30N 33°46' W 118°16'2 4.4
2017-Oct-15 09:00N 33°44' W 118°16'3 6.0
2017-Oct-15 08:30N 33°45' W 118°13'0 0.9
2017-Oct-15 08:00N 33°45' W 118°13'2 4.5
2017-Oct-15 07:30N 33°45' W 118°16'0 0.7
2017-Oct-15 07:00N 33°45' W 118°16'0 0.0
2017-Oct-15 06:30N 33°45' W 118°16'0 0.0
2017-Oct-15 06:00N 33°45' W 118°16'0 0.0
2017-Oct-15 05:30N 33°45' W 118°16'2 5.0
2017-Oct-15 05:00N 33°46' W 118°13'0 0.8
2017-Oct-15 04:30N 33°46' W 118°13'2 4.0
2017-Oct-15 04:00N 33°44' W 118°12'0 0.0
2017-Oct-15 03:28N 33°44' W 118°12'3 5.9
2017-Oct-15 03:00N 33°43' W 118°15'3 6.1
2017-Oct-15 02:30N 33°46' W 118°16'2 3.9
2017-Oct-15 02:00N 33°46' W 118°13'0 0.5
2017-Oct-15 01:30N 33°46' W 118°13'0 0.0
2017-Oct-15 01:00N 33°46' W 118°13'0 0.0
2017-Oct-15 00:30N 33°46' W 118°13'0 0.0
2017-Oct-15 00:00N 33°46' W 118°13'3 5.1
2017-Oct-14 23:30N 33°44' W 118°11'1 1.1
2017-Oct-14 23:00N 33°44' W 118°11'1 1.3
2017-Oct-14 22:30N 33°44' W 118°12'0 0.5
2017-Oct-14 22:00N 33°44' W 118°12'2 4.7
2017-Oct-14 21:30N 33°42' W 118°11'0 0.4
2017-Oct-14 21:00N 33°42' W 118°11'2 4.3
2017-Oct-14 20:30N 33°44' W 118°12'3 5.6
2017-Oct-14 20:00N 33°46' W 118°13'0 0.7
2017-Oct-14 19:30N 33°46' W 118°13'0 0.0
2017-Oct-14 19:00N 33°46' W 118°13'0 0.0
2017-Oct-14 18:30N 33°46' W 118°13'1 1.4
2017-Oct-14 17:59N 33°46' W 118°13'0 0.0
2017-Oct-14 17:30N 33°46' W 118°13'1 1.5
2017-Oct-14 17:00N 33°46' W 118°14'0 0.5
2017-Oct-14 16:30N 33°46' W 118°14'3 5.9
2017-Oct-14 16:00N 33°43' W 118°14'3 5.0
2017-Oct-14 15:30N 33°44' W 118°17'2 3.2
2017-Oct-14 15:00N 33°46' W 118°16'0 0.2
2017-Oct-14 14:30N 33°46' W 118°16'0 0.0
2017-Oct-14 14:00N 33°46' W 118°16'0 0.0
2017-Oct-14 13:29N 33°46' W 118°16'0 0.1
2017-Oct-14 13:00N 33°46' W 118°16'3 5.1
2017-Oct-14 12:29N 33°43' W 118°16'2 4.8
2017-Oct-14 12:00N 33°45' W 118°17'0 0.3
2017-Oct-14 11:30N 33°46' W 118°17'0 0.0
2017-Oct-14 10:58N 33°46' W 118°17'0 0.0
2017-Oct-14 10:30N 33°46' W 118°17'0 0.0
2017-Oct-14 10:00N 33°46' W 118°17'0 0.0
2017-Oct-14 09:30N 33°46' W 118°17'0 0.0
2017-Oct-14 09:00N 33°46' W 118°17'0 0.0
2017-Oct-14 08:30N 33°46' W 118°17'0 0.0
2017-Oct-14 08:00N 33°46' W 118°17'2 4.0
2017-Oct-14 07:28N 33°44' W 118°16'3 7.2
2017-Oct-14 07:00N 33°44' W 118°12'0 0.6
2017-Oct-14 06:30N 33°45' W 118°12'1 1.1
2017-Oct-14 06:00N 33°45' W 118°13'0 0.0
2017-Oct-14 05:30N 33°45' W 118°13'0 0.8
2017-Oct-14 05:00N 33°45' W 118°13'1 2.4
2017-Oct-14 04:30N 33°46' W 118°14'1 2.1
2017-Oct-14 04:00N 33°46' W 118°16'1 2.2
2017-Oct-14 03:30N 33°46' W 118°14'1 2.0
2017-Oct-14 03:00N 33°46' W 118°13'3 6.1
2017-Oct-14 02:30N 33°43' W 118°11'1 3.0
2017-Oct-14 02:00N 33°44' W 118°13'0 0.5
2017-Oct-14 01:30N 33°44' W 118°13'0 0.4
2017-Oct-14 01:00N 33°44' W 118°12'2 3.8
2017-Oct-14 00:30N 33°46' W 118°13'1 2.1
2017-Oct-14 00:00N 33°46' W 118°14'1 1.9
2017-Oct-13 23:30N 33°46' W 118°13'0 0.0
2017-Oct-13 23:00N 33°46' W 118°13'1 1.3
2017-Oct-13 22:30N 33°46' W 118°13'0 0.0
2017-Oct-13 22:00N 33°46' W 118°13'0 0.0
2017-Oct-13 21:30N 33°46' W 118°13'0 0.0
2017-Oct-13 21:00N 33°46' W 118°13'0 0.0
2017-Oct-13 20:30N 33°46' W 118°13'0 0.0
2017-Oct-13 20:00N 33°46' W 118°13'0 0.1
2017-Oct-13 19:30N 33°46' W 118°13'1 1.2
2017-Oct-13 19:00N 33°46' W 118°13'3 6.6
2017-Oct-13 18:30N 33°43' W 118°15'1 2.4
2017-Oct-13 18:00N 33°43' W 118°16'0 0.3
2017-Oct-13 17:25N 33°43' W 118°17'0 0.0
2017-Oct-13 17:00N 33°43' W 118°17'0 0.0
2017-Oct-13 16:30N 33°43' W 118°17'0 0.2
2017-Oct-13 16:00N 33°43' W 118°16'0 0.0
2017-Oct-13 15:29N 33°43' W 118°16'0 0.0
2017-Oct-13 15:00N 33°43' W 118°16'1 2.6
2017-Oct-13 14:30N 33°45' W 118°17'1 1.5
2017-Oct-13 14:00N 33°45' W 118°16'0 0.0
2017-Oct-13 13:30N 33°45' W 118°16'0 0.0
2017-Oct-13 13:00N 33°45' W 118°16'0 0.0
2017-Oct-13 12:30N 33°45' W 118°16'1 2.5
2017-Oct-13 12:00N 33°44' W 118°16'0 0.1
2017-Oct-13 11:30N 33°44' W 118°16'0 0.9
2017-Oct-13 11:00N 33°44' W 118°16'1 2.5
2017-Oct-13 10:30N 33°43' W 118°15'1 2.7
2017-Oct-13 10:00N 33°43' W 118°14'2 4.4
2017-Oct-13 09:30N 33°45' W 118°13'0 0.6
2017-Oct-13 09:00N 33°46' W 118°13'0 0.0
2017-Oct-13 08:30N 33°46' W 118°13'0 0.0
2017-Oct-13 08:00N 33°46' W 118°13'0 0.0
2017-Oct-13 07:30N 33°46' W 118°13'0 0.0
2017-Oct-13 07:00N 33°46' W 118°13'0 0.0
2017-Oct-13 06:30N 33°46' W 118°13'0 0.0
2017-Oct-13 06:00N 33°46' W 118°13'0 0.0
2017-Oct-13 05:30N 33°46' W 118°13'0 0.0
2017-Oct-13 05:00N 33°46' W 118°13'0 0.0
2017-Oct-13 04:30N 33°46' W 118°13'2 4.1
2017-Oct-13 04:00N 33°45' W 118°16'2 3.0
2017-Oct-13 03:30N 33°44' W 118°17'1 2.5
2017-Oct-13 03:00N 33°44' W 118°15'0 0.0
2017-Oct-13 02:30N 33°44' W 118°15'0 0.0
2017-Oct-13 02:00N 33°44' W 118°15'1 2.2
2017-Oct-13 01:30N 33°43' W 118°16'1 2.9
2017-Oct-13 01:00N 33°45' W 118°16'1 1.2
2017-Oct-13 00:30N 33°45' W 118°16'0 0.0
2017-Oct-13 00:00N 33°45' W 118°16'0 0.9
2017-Oct-12 23:30N 33°46' W 118°17'1 1.1
2017-Oct-12 23:00N 33°45' W 118°16'2 3.6
2017-Oct-12 22:30N 33°43' W 118°16'1 1.4
2017-Oct-12 22:00N 33°43' W 118°15'1 2.4
2017-Oct-12 21:30N 33°44' W 118°16'0 0.0
2017-Oct-12 21:00N 33°44' W 118°16'0 0.0
2017-Oct-12 20:30N 33°44' W 118°16'0 0.0
2017-Oct-12 20:00N 33°44' W 118°16'1 1.3
2017-Oct-12 19:30N 33°44' W 118°16'0 0.8
2017-Oct-12 19:00N 33°44' W 118°15'0 0.6
2017-Oct-12 18:30N 33°44' W 118°16'2 3.5
2017-Oct-12 18:00N 33°45' W 118°16'1 2.5
2017-Oct-12 17:30N 33°46' W 118°15'1 2.3
2017-Oct-12 17:00N 33°46' W 118°13'2 3.2
2017-Oct-12 16:30N 33°45' W 118°12'1 1.5
2017-Oct-12 16:00N 33°44' W 118°12'3 6.5
2017-Oct-12 15:30N 33°44' W 118°16'2 4.7
2017-Oct-12 15:00N 33°46' W 118°16'0 0.0
2017-Oct-12 14:30N 33°46' W 118°16'0 0.0
2017-Oct-12 14:00N 33°46' W 118°16'0 0.0
2017-Oct-12 13:30N 33°46' W 118°16'1 1.8
2017-Oct-12 13:00N 33°46' W 118°15'2 4.7
2017-Oct-12 12:30N 33°44' W 118°12'0 0.5
2017-Oct-12 12:00N 33°45' W 118°12'0 0.9
2017-Oct-12 11:26N 33°45' W 118°13'0 0.0
2017-Oct-12 11:00N 33°45' W 118°13'0 0.0
2017-Oct-12 10:30N 33°45' W 118°13'1 2.0
2017-Oct-12 10:00N 33°45' W 118°14'1 2.5
2017-Oct-12 09:30N 33°45' W 118°13'2 2.8
2017-Oct-12 08:58N 33°43' W 118°11'1 2.0
2017-Oct-12 08:29N 33°44' W 118°12'1 1.2
2017-Oct-12 08:00N 33°45' W 118°12'0 0.0
2017-Oct-12 07:30N 33°45' W 118°12'0 0.5
2017-Oct-12 07:00N 33°44' W 118°12'0 0.0
2017-Oct-12 05:37N 33°44' W 118°12'0 0.0
2017-Oct-12 05:11N 33°44' W 118°12'1 5.5
2017-Oct-12 05:00N 33°45' W 118°13'0 0.2
2017-Oct-12 04:30N 33°45' W 118°13'1 1.7
2017-Oct-12 04:00N 33°44' W 118°13'0 0.4
2017-Oct-12 03:30N 33°44' W 118°12'1 2.8
2017-Oct-12 03:00N 33°45' W 118°13'0 0.0
2017-Oct-12 02:27N 33°45' W 118°13'0 0.0
2017-Oct-12 01:50N 33°45' W 118°13'1 2.4
2017-Oct-12 01:30N 33°45' W 118°12'0 0.6
2017-Oct-12 01:00N 33°45' W 118°12'1 1.2
2017-Oct-12 00:30N 33°45' W 118°13'0 0.0
2017-Oct-12 00:00N 33°45' W 118°13'0 0.6
2017-Oct-11 23:30N 33°45' W 118°13'0 0.5
2017-Oct-11 23:00N 33°45' W 118°13'1 1.4
2017-Oct-11 22:30N 33°45' W 118°13'1 2.1
2017-Oct-11 22:00N 33°45' W 118°14'0 0.1
2017-Oct-11 21:30N 33°45' W 118°14'1 2.3
2017-Oct-11 21:00N 33°45' W 118°13'1 1.9
2017-Oct-11 20:30N 33°45' W 118°13'0 0.1
2017-Oct-11 20:00N 33°45' W 118°13'0 0.4
2017-Oct-11 19:30N 33°46' W 118°13'0 0.0
2017-Oct-11 19:00N 33°46' W 118°13'0 0.0
2017-Oct-11 18:30N 33°46' W 118°13'0 0.0
2017-Oct-11 18:00N 33°46' W 118°13'0 0.0
2017-Oct-11 17:30N 33°46' W 118°13'0 0.0
2017-Oct-11 17:00N 33°46' W 118°13'1 0.1
2017-Oct-11 00:00N 33°45' W 118°13'3 5.6
2017-Oct-10 23:30N 33°43' W 118°11'1 1.3
2017-Oct-10 23:00N 33°42' W 118°10'4 7.9
2017-Oct-10 22:30N 33°45' W 118°13'1 1.8
2017-Oct-10 22:00N 33°46' W 118°13'0 0.0
2017-Oct-10 21:30N 33°46' W 118°13'0 0.0
2017-Oct-10 21:00N 33°46' W 118°13'0 0.0
2017-Oct-10 20:30N 33°46' W 118°13'0 0.0
2017-Oct-10 20:00N 33°46' W 118°13'0 0.0
2017-Oct-10 19:30N 33°46' W 118°13'0 0.0
2017-Oct-10 19:00N 33°46' W 118°13'0 0.0
2017-Oct-10 18:30N 33°46' W 118°13'0 0.0
2017-Oct-10 18:00N 33°46' W 118°13'0 0.4
2017-Oct-10 17:30N 33°46' W 118°13'0 1.0
2017-Oct-10 17:00N 33°46' W 118°13'2 3.3
2017-Oct-10 16:30N 33°44' W 118°12'1 1.1
2017-Oct-10 16:00N 33°44' W 118°12'1 1.1
2017-Oct-10 15:30N 33°44' W 118°12'1 1.0
2017-Oct-10 15:00N 33°44' W 118°12'1 0.6
2017-Oct-10 14:00N 33°44' W 118°12'0 0.0
2017-Oct-10 13:30N 33°44' W 118°12'0 0.0
2017-Oct-10 13:00N 33°44' W 118°12'0 0.0
2017-Oct-10 12:30N 33°44' W 118°12'0 0.0
2017-Oct-10 12:00N 33°44' W 118°12'0 0.0
2017-Oct-10 11:30N 33°44' W 118°12'0 0.0
2017-Oct-10 11:00N 33°44' W 118°12'0 0.1
2017-Oct-10 10:30N 33°44' W 118°12'1 1.0
2017-Oct-10 10:00N 33°44' W 118°12'1 2.1
2017-Oct-10 09:30N 33°45' W 118°13'0 0.0
2017-Oct-10 09:00N 33°45' W 118°13'0 0.0
2017-Oct-10 08:30N 33°45' W 118°13'0 0.0
2017-Oct-10 08:00N 33°45' W 118°13'0 0.0
2017-Oct-10 07:30N 33°45' W 118°13'0 0.0
2017-Oct-10 07:00N 33°45' W 118°13'2 3.9
2017-Oct-10 06:31N 33°46' W 118°15'1 2.0
2017-Oct-10 06:00N 33°45' W 118°16'3 5.4
2017-Oct-10 05:30N 33°43' W 118°14'3 6.1
2017-Oct-10 05:00N 33°46' W 118°13'0 0.9
2017-Oct-10 04:30N 33°46' W 118°13'0 0.0
2017-Oct-10 04:00N 33°46' W 118°13'0 0.0
2017-Oct-10 03:30N 33°46' W 118°13'0 0.0
2017-Oct-10 03:00N 33°46' W 118°13'0 0.0
2017-Oct-10 02:30N 33°46' W 118°13'1 2.8
2017-Oct-10 02:00N 33°45' W 118°12'2 3.9
2017-Oct-10 01:30N 33°43' W 118°14'3 5.1
2017-Oct-10 01:00N 33°45' W 118°16'1 2.0
2017-Oct-10 00:30N 33°46' W 118°16'1 2.2
2017-Oct-10 00:00N 33°46' W 118°14'2 3.9
2017-Oct-09 23:30N 33°46' W 118°17'0 0.4
2017-Oct-09 23:00N 33°45' W 118°17'1 2.4
2017-Oct-09 22:30N 33°46' W 118°15'0 0.1
2017-Oct-09 22:00N 33°46' W 118°15'2 3.3
2017-Oct-09 21:30N 33°45' W 118°16'0 0.1
2017-Oct-09 21:00N 33°45' W 118°16'0 0.2
2017-Oct-09 20:30N 33°45' W 118°16'2 4.9
2017-Oct-09 20:00N 33°43' W 118°15'3 5.7
2017-Oct-09 19:30N 33°45' W 118°13'0 0.0
2017-Oct-09 19:00N 33°45' W 118°13'0 0.4
2017-Oct-09 18:30N 33°45' W 118°13'2 3.7
2017-Oct-09 18:00N 33°43' W 118°14'0 0.2
2017-Oct-09 17:30N 33°43' W 118°14'2 4.9
2017-Oct-09 17:00N 33°46' W 118°13'0 0.3
2017-Oct-09 16:30N 33°46' W 118°13'0 0.1
2017-Oct-09 16:00N 33°46' W 118°13'1 2.5
2017-Oct-09 15:30N 33°46' W 118°14'1 2.3
2017-Oct-09 15:00N 33°46' W 118°16'0 0.0
2017-Oct-09 14:29N 33°46' W 118°16'0 0.2
2017-Oct-09 13:59N 33°46' W 118°16'0 0.0
2017-Oct-09 13:30N 33°46' W 118°16'2 3.6
2017-Oct-09 12:51N 33°46' W 118°13'0 1.1
2017-Oct-09 12:30N 33°46' W 118°13'2 3.1
2017-Oct-09 12:00N 33°45' W 118°13'1 2.1
2017-Oct-09 11:26N 33°44' W 118°12'3 6.2
2017-Oct-09 10:58N 33°46' W 118°14'1 2.2
2017-Oct-09 10:30N 33°46' W 118°15'0 0.8
2017-Oct-09 10:00N 33°46' W 118°15'1 3.0
2017-Oct-09 09:30N 33°46' W 118°13'0 0.6
2017-Oct-09 08:53N 33°46' W 118°13'0 0.0
2017-Oct-09 08:29N 33°46' W 118°13'0 0.0
2017-Oct-09 08:00N 33°46' W 118°13'0 0.0
2017-Oct-09 07:30N 33°46' W 118°13'0 0.0
2017-Oct-09 07:00N 33°46' W 118°13'0 0.0
2017-Oct-09 06:30N 33°46' W 118°13'0 0.0
2017-Oct-09 06:00N 33°46' W 118°13'0 0.0
2017-Oct-09 05:30N 33°46' W 118°13'0 0.0
2017-Oct-09 05:00N 33°46' W 118°13'0 0.0
2017-Oct-09 04:27N 33°46' W 118°13'0 0.0
2017-Oct-09 03:56N 33°46' W 118°13'0 0.0
2017-Oct-09 03:22N 33°46' W 118°13'1 3.2
2017-Oct-09 03:00N 33°46' W 118°15'1 2.1
2017-Oct-09 02:30N 33°46' W 118°16'0 0.0
2017-Oct-09 02:00N 33°46' W 118°16'0 0.0
2017-Oct-09 01:30N 33°46' W 118°16'0 0.0
2017-Oct-09 01:00N 33°46' W 118°16'0 0.0
2017-Oct-09 00:30N 33°46' W 118°16'0 0.0
2017-Oct-09 00:00N 33°46' W 118°16'0 0.0
2017-Oct-08 23:30N 33°46' W 118°16'0 0.3
2017-Oct-08 23:00N 33°46' W 118°16'0 1.0
2017-Oct-08 22:30N 33°45' W 118°16'2 3.1
2017-Oct-08 22:00N 33°44' W 118°16'2 3.8
2017-Oct-08 21:30N 33°43' W 118°14'3 6.6
2017-Oct-08 21:00N 33°46' W 118°13'0 0.8
2017-Oct-08 20:30N 33°46' W 118°13'0 0.0
2017-Oct-08 20:00N 33°46' W 118°13'0 0.0
2017-Oct-08 19:30N 33°46' W 118°13'0 0.0
2017-Oct-08 19:00N 33°46' W 118°13'0 0.1
2017-Oct-08 18:30N 33°46' W 118°13'1 1.2
2017-Oct-08 18:00N 33°46' W 118°13'0 0.4
2017-Oct-08 17:30N 33°46' W 118°13'0 0.0
2017-Oct-08 17:00N 33°46' W 118°13'0 0.0
2017-Oct-08 16:30N 33°46' W 118°13'0 0.0
2017-Oct-08 16:00N 33°46' W 118°13'0 0.0
2017-Oct-08 15:30N 33°46' W 118°13'0 0.0
2017-Oct-08 15:00N 33°46' W 118°13'0 0.0
2017-Oct-08 14:30N 33°46' W 118°13'0 0.0
2017-Oct-08 14:00N 33°46' W 118°13'0 0.0
2017-Oct-08 13:30N 33°46' W 118°13'0 0.0
2017-Oct-08 13:00N 33°46' W 118°13'2 3.2
2017-Oct-08 12:29N 33°44' W 118°12'1 1.2
2017-Oct-08 12:00N 33°45' W 118°12'0 0.6
2017-Oct-08 11:30N 33°44' W 118°12'0 0.0
2017-Oct-08 11:00N 33°44' W 118°12'0 0.0
2017-Oct-08 10:30N 33°44' W 118°12'0 0.0
2017-Oct-08 10:00N 33°44' W 118°12'1 1.4
2017-Oct-08 09:30N 33°45' W 118°12'0 0.2
2017-Oct-08 09:00N 33°45' W 118°12'2 3.4
2017-Oct-08 08:30N 33°43' W 118°11'0 0.1
2017-Oct-08 08:00N 33°44' W 118°11'3 5.2
2017-Oct-08 07:30N 33°46' W 118°13'0 0.3
2017-Oct-08 07:00N 33°46' W 118°13'0 0.0
2017-Oct-08 06:30N 33°46' W 118°13'0 0.0
2017-Oct-08 06:00N 33°46' W 118°13'0 0.0
2017-Oct-08 05:30N 33°46' W 118°13'0 0.0
2017-Oct-08 05:00N 33°46' W 118°13'0 0.0
2017-Oct-08 04:30N 33°46' W 118°13'0 0.0
2017-Oct-08 04:00N 33°46' W 118°13'0 0.0
2017-Oct-08 03:30N 33°46' W 118°13'0 0.0
2017-Oct-08 03:00N 33°46' W 118°13'0 0.0
2017-Oct-08 02:30N 33°46' W 118°13'0 0.0
2017-Oct-08 01:59N 33°46' W 118°13'0 0.0
2017-Oct-08 01:30N 33°46' W 118°13'0 0.9
2017-Oct-08 01:00N 33°46' W 118°13'3 5.3
2017-Oct-08 00:30N 33°45' W 118°16'0 0.0
2017-Oct-08 00:00N 33°45' W 118°16'0 0.0
2017-Oct-07 23:30N 33°45' W 118°16'0 0.0
2017-Oct-07 23:00N 33°45' W 118°16'0 0.0
2017-Oct-07 22:30N 33°45' W 118°16'0 0.0
2017-Oct-07 22:00N 33°45' W 118°16'0 0.0
2017-Oct-07 21:30N 33°45' W 118°16'0 0.0
2017-Oct-07 21:00N 33°45' W 118°16'0 0.0
2017-Oct-07 20:30N 33°45' W 118°16'0 0.0
2017-Oct-07 20:00N 33°45' W 118°16'1 1.1
2017-Oct-07 19:30N 33°46' W 118°17'0 0.0
2017-Oct-07 19:00N 33°46' W 118°17'0 0.0
2017-Oct-07 18:30N 33°46' W 118°17'0 0.0
2017-Oct-07 18:00N 33°46' W 118°17'2 3.1
2017-Oct-07 17:30N 33°46' W 118°15'1 2.6
2017-Oct-07 17:00N 33°46' W 118°13'0 0.0
2017-Oct-07 16:30N 33°46' W 118°13'0 0.0
2017-Oct-07 16:00N 33°46' W 118°13'3 5.5
2017-Oct-07 15:30N 33°43' W 118°14'3 5.1
2017-Oct-07 15:00N 33°45' W 118°16'1 1.4
2017-Oct-07 14:30N 33°46' W 118°17'0 0.0
2017-Oct-07 14:00N 33°46' W 118°17'0 0.3
2017-Oct-07 13:30N 33°46' W 118°17'0 0.0
2017-Oct-07 13:00N 33°46' W 118°17'0 0.0
2017-Oct-07 12:30N 33°46' W 118°17'0 0.0
2017-Oct-07 12:00N 33°46' W 118°17'0 0.0
2017-Oct-07 11:30N 33°46' W 118°17'0 0.0
2017-Oct-07 11:00N 33°46' W 118°17'2 4.4
2017-Oct-07 10:30N 33°43' W 118°16'1 2.9
2017-Oct-07 10:00N 33°45' W 118°16'0 0.2
2017-Oct-07 09:30N 33°45' W 118°16'1 1.7
2017-Oct-07 09:00N 33°46' W 118°17'1 1.6
2017-Oct-07 08:30N 33°46' W 118°16'1 1.9
2017-Oct-07 08:00N 33°45' W 118°16'2 3.0
2017-Oct-07 07:29N 33°44' W 118°15'  
Track history (hours):
 
Tides and Currents Weather Stations Pressure Air Temp Water Temp Dewpoint Dewpoint Depression Visibility Wind Speed Wind Dir Waves Ship Positions

Campbell Foss

Owner: Foss Maritime Co., Seattle, WA. More information available from US FCC via Universal Licensing System and Coast Guard Vessel Documentation Center.

Last reported at 2017-Oct-17 07:29 UTC. Time now 2017-Oct-17 08:00 UTC.
Position N 33°44' W 118°10'.

Length 23 m; draft 16 m.

Type: Tug. MMSI: 367076360.

Date/timePositionNaut miles runAvg speedWind from/ knotsBaromVisibWave heightAir tempDewpointWater temp
2017-Oct-17 07:29N 33°44' W 118°10'4 7.7
2017-Oct-17 07:00N 33°43' W 118°14'3 5.4
2017-Oct-17 06:30N 33°45' W 118°16'1 1.8
2017-Oct-17 06:00N 33°46' W 118°16'0 0.6
2017-Oct-17 05:30N 33°46' W 118°15'2 3.6
2017-Oct-17 05:00N 33°46' W 118°13'0 0.0
2017-Oct-17 04:17N 33°46' W 118°13'0 0.0
2017-Oct-17 03:56N 33°46' W 118°13'1 2.9
2017-Oct-17 03:30N 33°46' W 118°15'1 2.1
2017-Oct-17 03:00N 33°46' W 118°13'4 7.8
2017-Oct-17 02:30N 33°44' W 118°10'3 3.2
2017-Oct-17 01:24N 33°40' W 118°11'4 9.0
2017-Oct-17 01:00N 33°44' W 118°12'3 5.5
2017-Oct-17 00:30N 33°46' W 118°13'1 2.1
2017-Oct-17 00:00N 33°45' W 118°13'2 4.2
2017-Oct-16 23:28N 33°43' W 118°11'2 4.7
2017-Oct-16 23:00N 33°43' W 118°14'1 2.8
2017-Oct-16 22:30N 33°44' W 118°15'0 0.0
2017-Oct-16 22:00N 33°44' W 118°15'0 0.0
2017-Oct-16 21:30N 33°44' W 118°15'0 0.0
2017-Oct-16 21:00N 33°44' W 118°15'0 0.0
2017-Oct-16 20:30N 33°44' W 118°15'1 1.4
2017-Oct-16 20:00N 33°43' W 118°16'2 4.5
2017-Oct-16 19:30N 33°46' W 118°16'1 1.7
2017-Oct-16 19:00N 33°45' W 118°17'0 0.5
2017-Oct-16 18:30N 33°45' W 118°16'2 3.1
2017-Oct-16 18:00N 33°44' W 118°16'2 4.1
2017-Oct-16 17:30N 33°43' W 118°14'2 5.0
2017-Oct-16 17:00N 33°46' W 118°13'0 0.0
2017-Oct-16 16:30N 33°46' W 118°13'2 3.7
2017-Oct-16 16:00N 33°46' W 118°15'2 3.1
2017-Oct-16 15:30N 33°44' W 118°17'3 5.5
2017-Oct-16 15:00N 33°43' W 118°14'0 0.0
2017-Oct-16 13:42N 33°43' W 118°14'1 2.9
2017-Oct-16 13:24N 33°44' W 118°13'1 3.1
2017-Oct-16 12:59N 33°45' W 118°14'0 0.1
2017-Oct-16 12:29N 33°45' W 118°14'0 0.1
2017-Oct-16 11:58N 33°45' W 118°14'0 0.0
2017-Oct-16 11:30N 33°45' W 118°14'0 0.0
2017-Oct-16 10:59N 33°45' W 118°14'0 0.0
2017-Oct-16 10:30N 33°45' W 118°14'0 0.0
2017-Oct-16 09:59N 33°45' W 118°14'1 1.3
2017-Oct-16 08:59N 33°45' W 118°13'2 2.1
2017-Oct-16 08:15N 33°43' W 118°11'0 0.2
2017-Oct-16 07:58N 33°44' W 118°11'2 4.6
2017-Oct-16 07:30N 33°45' W 118°13'0 0.2
2017-Oct-16 07:00N 33°45' W 118°13'0 0.0
2017-Oct-16 06:30N 33°45' W 118°13'0 0.0
2017-Oct-16 06:00N 33°45' W 118°13'0 0.0
2017-Oct-16 05:30N 33°45' W 118°13'0 0.0
2017-Oct-16 05:00N 33°45' W 118°13'0 0.9
2017-Oct-16 04:30N 33°46' W 118°13'0 0.0
2017-Oct-16 03:59N 33°46' W 118°13'0 0.0
2017-Oct-16 03:30N 33°46' W 118°13'1 1.5
2017-Oct-16 03:00N 33°45' W 118°13'1 1.4
2017-Oct-16 02:30N 33°46' W 118°13'1 1.1
2017-Oct-16 02:00N 33°45' W 118°13'2 3.8
2017-Oct-16 01:30N 33°43' W 118°14'1 2.4
2017-Oct-16 01:00N 33°44' W 118°13'2 4.5
2017-Oct-16 00:30N 33°46' W 118°14'0 0.8
2017-Oct-16 00:00N 33°46' W 118°14'0 0.0
2017-Oct-15 23:30N 33°46' W 118°14'2 3.0
2017-Oct-15 23:00N 33°45' W 118°16'0 0.2
2017-Oct-15 22:30N 33°45' W 118°16'2 3.8
2017-Oct-15 22:00N 33°43' W 118°16'1 1.6
2017-Oct-15 21:30N 33°43' W 118°15'1 1.2
2017-Oct-15 21:00N 33°43' W 118°16'0 0.0
2017-Oct-15 20:30N 33°43' W 118°16'0 0.0
2017-Oct-15 20:00N 33°43' W 118°16'0 0.0
2017-Oct-15 19:30N 33°43' W 118°16'1 1.2
2017-Oct-15 19:00N 33°43' W 118°16'2 5.0
2017-Oct-15 18:30N 33°45' W 118°16'0 0.2
2017-Oct-15 18:00N 33°45' W 118°17'1 2.3
2017-Oct-15 17:30N 33°46' W 118°15'2 3.5
2017-Oct-15 17:00N 33°46' W 118°13'0 0.0
2017-Oct-15 16:30N 33°46' W 118°13'0 0.0
2017-Oct-15 16:00N 33°46' W 118°13'3 5.4
2017-Oct-15 15:30N 33°43' W 118°14'2 4.3
2017-Oct-15 15:00N 33°44' W 118°16'0 0.3
2017-Oct-15 14:00N 33°44' W 118°17'0 0.0
2017-Oct-15 13:30N 33°44' W 118°17'0 0.8
2017-Oct-15 13:00N 33°45' W 118°16'0 0.2
2017-Oct-15 12:30N 33°45' W 118°16'0 0.2
2017-Oct-15 12:00N 33°45' W 118°16'2 4.6
2017-Oct-15 11:30N 33°43' W 118°15'2 4.5
2017-Oct-15 11:00N 33°45' W 118°16'1 2.3
2017-Oct-15 10:30N 33°46' W 118°16'0 0.0
2017-Oct-15 10:00N 33°46' W 118°16'0 0.0
2017-Oct-15 09:30N 33°46' W 118°16'2 4.4
2017-Oct-15 09:00N 33°44' W 118°16'3 6.0
2017-Oct-15 08:30N 33°45' W 118°13'0 0.9
2017-Oct-15 08:00N 33°45' W 118°13'2 4.5
2017-Oct-15 07:30N 33°45' W 118°16'0 0.7
2017-Oct-15 07:00N 33°45' W 118°16'0 0.0
2017-Oct-15 06:30N 33°45' W 118°16'0 0.0
2017-Oct-15 06:00N 33°45' W 118°16'0 0.0
2017-Oct-15 05:30N 33°45' W 118°16'2 5.0
2017-Oct-15 05:00N 33°46' W 118°13'0 0.8
2017-Oct-15 04:30N 33°46' W 118°13'2 4.0
2017-Oct-15 04:00N 33°44' W 118°12'0 0.0
2017-Oct-15 03:28N 33°44' W 118°12'3 5.9
2017-Oct-15 03:00N 33°43' W 118°15'3 6.1
2017-Oct-15 02:30N 33°46' W 118°16'2 3.9
2017-Oct-15 02:00N 33°46' W 118°13'0 0.5
2017-Oct-15 01:30N 33°46' W 118°13'0 0.0
2017-Oct-15 01:00N 33°46' W 118°13'0 0.0
2017-Oct-15 00:30N 33°46' W 118°13'0 0.0
2017-Oct-15 00:00N 33°46' W 118°13'3 5.1
2017-Oct-14 23:30N 33°44' W 118°11'1 1.1
2017-Oct-14 23:00N 33°44' W 118°11'1 1.3
2017-Oct-14 22:30N 33°44' W 118°12'0 0.5
2017-Oct-14 22:00N 33°44' W 118°12'2 4.7
2017-Oct-14 21:30N 33°42' W 118°11'0 0.4
2017-Oct-14 21:00N 33°42' W 118°11'2 4.3
2017-Oct-14 20:30N 33°44' W 118°12'3 5.6
2017-Oct-14 20:00N 33°46' W 118°13'0 0.7
2017-Oct-14 19:30N 33°46' W 118°13'0 0.0
2017-Oct-14 19:00N 33°46' W 118°13'0 0.0
2017-Oct-14 18:30N 33°46' W 118°13'1 1.4
2017-Oct-14 17:59N 33°46' W 118°13'0 0.0
2017-Oct-14 17:30N 33°46' W 118°13'1 1.5
2017-Oct-14 17:00N 33°46' W 118°14'0 0.5
2017-Oct-14 16:30N 33°46' W 118°14'3 5.9
2017-Oct-14 16:00N 33°43' W 118°14'3 5.0
2017-Oct-14 15:30N 33°44' W 118°17'2 3.2
2017-Oct-14 15:00N 33°46' W 118°16'0 0.2
2017-Oct-14 14:30N 33°46' W 118°16'0 0.0
2017-Oct-14 14:00N 33°46' W 118°16'0 0.0
2017-Oct-14 13:29N 33°46' W 118°16'0 0.1
2017-Oct-14 13:00N 33°46' W 118°16'3 5.1
2017-Oct-14 12:29N 33°43' W 118°16'2 4.8
2017-Oct-14 12:00N 33°45' W 118°17'0 0.3
2017-Oct-14 11:30N 33°46' W 118°17'0 0.0
2017-Oct-14 10:58N 33°46' W 118°17'0 0.0
2017-Oct-14 10:30N 33°46' W 118°17'0 0.0
2017-Oct-14 10:00N 33°46' W 118°17'0 0.0
2017-Oct-14 09:30N 33°46' W 118°17'0 0.0
2017-Oct-14 09:00N 33°46' W 118°17'0 0.0
2017-Oct-14 08:30N 33°46' W 118°17'0 0.0
2017-Oct-14 08:00N 33°46' W 118°17'2 4.0
2017-Oct-14 07:28N 33°44' W 118°16'3 7.2
2017-Oct-14 07:00N 33°44' W 118°12'0 0.6
2017-Oct-14 06:30N 33°45' W 118°12'1 1.1
2017-Oct-14 06:00N 33°45' W 118°13'0 0.0
2017-Oct-14 05:30N 33°45' W 118°13'0 0.8
2017-Oct-14 05:00N 33°45' W 118°13'1 2.4
2017-Oct-14 04:30N 33°46' W 118°14'1 2.1
2017-Oct-14 04:00N 33°46' W 118°16'1 2.2
2017-Oct-14 03:30N 33°46' W 118°14'1 2.0
2017-Oct-14 03:00N 33°46' W 118°13'3 6.1
2017-Oct-14 02:30N 33°43' W 118°11'1 3.0
2017-Oct-14 02:00N 33°44' W 118°13'0 0.5
2017-Oct-14 01:30N 33°44' W 118°13'0 0.4
2017-Oct-14 01:00N 33°44' W 118°12'2 3.8
2017-Oct-14 00:30N 33°46' W 118°13'1 2.1
2017-Oct-14 00:00N 33°46' W 118°14'1 1.9
2017-Oct-13 23:30N 33°46' W 118°13'0 0.0
2017-Oct-13 23:00N 33°46' W 118°13'1 1.3
2017-Oct-13 22:30N 33°46' W 118°13'0 0.0
2017-Oct-13 22:00N 33°46' W 118°13'0 0.0
2017-Oct-13 21:30N 33°46' W 118°13'0 0.0
2017-Oct-13 21:00N 33°46' W 118°13'0 0.0
2017-Oct-13 20:30N 33°46' W 118°13'0 0.0
2017-Oct-13 20:00N 33°46' W 118°13'0 0.1
2017-Oct-13 19:30N 33°46' W 118°13'1 1.2
2017-Oct-13 19:00N 33°46' W 118°13'3 6.6
2017-Oct-13 18:30N 33°43' W 118°15'1 2.4
2017-Oct-13 18:00N 33°43' W 118°16'0 0.3
2017-Oct-13 17:25N 33°43' W 118°17'0 0.0
2017-Oct-13 17:00N 33°43' W 118°17'0 0.0
2017-Oct-13 16:30N 33°43' W 118°17'0 0.2
2017-Oct-13 16:00N 33°43' W 118°16'0 0.0
2017-Oct-13 15:29N 33°43' W 118°16'0 0.0
2017-Oct-13 15:00N 33°43' W 118°16'1 2.6
2017-Oct-13 14:30N 33°45' W 118°17'1 1.5
2017-Oct-13 14:00N 33°45' W 118°16'0 0.0
2017-Oct-13 13:30N 33°45' W 118°16'0 0.0
2017-Oct-13 13:00N 33°45' W 118°16'0 0.0
2017-Oct-13 12:30N 33°45' W 118°16'1 2.5
2017-Oct-13 12:00N 33°44' W 118°16'0 0.1
2017-Oct-13 11:30N 33°44' W 118°16'0 0.9
2017-Oct-13 11:00N 33°44' W 118°16'1 2.5
2017-Oct-13 10:30N 33°43' W 118°15'1 2.7
2017-Oct-13 10:00N 33°43' W 118°14'2 4.4
2017-Oct-13 09:30N 33°45' W 118°13'0 0.6
2017-Oct-13 09:00N 33°46' W 118°13'0 0.0
2017-Oct-13 08:30N 33°46' W 118°13'0 0.0
2017-Oct-13 08:00N 33°46' W 118°13'0 0.0
2017-Oct-13 07:30N 33°46' W 118°13'0 0.0
2017-Oct-13 07:00N 33°46' W 118°13'0 0.0
2017-Oct-13 06:30N 33°46' W 118°13'0 0.0
2017-Oct-13 06:00N 33°46' W 118°13'0 0.0
2017-Oct-13 05:30N 33°46' W 118°13'0 0.0
2017-Oct-13 05:00N 33°46' W 118°13'0 0.0
2017-Oct-13 04:30N 33°46' W 118°13'2 4.1
2017-Oct-13 04:00N 33°45' W 118°16'2 3.0
2017-Oct-13 03:30N 33°44' W 118°17'1 2.5
2017-Oct-13 03:00N 33°44' W 118°15'0 0.0
2017-Oct-13 02:30N 33°44' W 118°15'0 0.0
2017-Oct-13 02:00N 33°44' W 118°15'1 2.2
2017-Oct-13 01:30N 33°43' W 118°16'1 2.9
2017-Oct-13 01:00N 33°45' W 118°16'1 1.2
2017-Oct-13 00:30N 33°45' W 118°16'0 0.0
2017-Oct-13 00:00N 33°45' W 118°16'0 0.9
2017-Oct-12 23:30N 33°46' W 118°17'1 1.1
2017-Oct-12 23:00N 33°45' W 118°16'2 3.6
2017-Oct-12 22:30N 33°43' W 118°16'1 1.4
2017-Oct-12 22:00N 33°43' W 118°15'1 2.4
2017-Oct-12 21:30N 33°44' W 118°16'0 0.0
2017-Oct-12 21:00N 33°44' W 118°16'0 0.0
2017-Oct-12 20:30N 33°44' W 118°16'0 0.0
2017-Oct-12 20:00N 33°44' W 118°16'1 1.3
2017-Oct-12 19:30N 33°44' W 118°16'0 0.8
2017-Oct-12 19:00N 33°44' W 118°15'0 0.6
2017-Oct-12 18:30N 33°44' W 118°16'2 3.5
2017-Oct-12 18:00N 33°45' W 118°16'1 2.5
2017-Oct-12 17:30N 33°46' W 118°15'1 2.3
2017-Oct-12 17:00N 33°46' W 118°13'2 3.2
2017-Oct-12 16:30N 33°45' W 118°12'1 1.5
2017-Oct-12 16:00N 33°44' W 118°12'3 6.5
2017-Oct-12 15:30N 33°44' W 118°16'2 4.7
2017-Oct-12 15:00N 33°46' W 118°16'0 0.0
2017-Oct-12 14:30N 33°46' W 118°16'0 0.0
2017-Oct-12 14:00N 33°46' W 118°16'0 0.0
2017-Oct-12 13:30N 33°46' W 118°16'1 1.8
2017-Oct-12 13:00N 33°46' W 118°15'2 4.7
2017-Oct-12 12:30N 33°44' W 118°12'0 0.5
2017-Oct-12 12:00N 33°45' W 118°12'0 0.9
2017-Oct-12 11:26N 33°45' W 118°13'0 0.0
2017-Oct-12 11:00N 33°45' W 118°13'0 0.0
2017-Oct-12 10:30N 33°45' W 118°13'1 2.0
2017-Oct-12 10:00N 33°45' W 118°14'1 2.5
2017-Oct-12 09:30N 33°45' W 118°13'2 2.8
2017-Oct-12 08:58N 33°43' W 118°11'1 2.0
2017-Oct-12 08:29N 33°44' W 118°12'1 1.2
2017-Oct-12 08:00N 33°45' W 118°12'0 0.0
2017-Oct-12 07:30N 33°45' W 118°12'0 0.5
2017-Oct-12 07:00N 33°44' W 118°12'0 0.0
2017-Oct-12 05:37N 33°44' W 118°12'0 0.0
2017-Oct-12 05:11N 33°44' W 118°12'1 5.5
2017-Oct-12 05:00N 33°45' W 118°13'0 0.2
2017-Oct-12 04:30N 33°45' W 118°13'1 1.7
2017-Oct-12 04:00N 33°44' W 118°13'0 0.4
2017-Oct-12 03:30N 33°44' W 118°12'1 2.8
2017-Oct-12 03:00N 33°45' W 118°13'0 0.0
2017-Oct-12 02:27N 33°45' W 118°13'0 0.0
2017-Oct-12 01:50N 33°45' W 118°13'1 2.4
2017-Oct-12 01:30N 33°45' W 118°12'0 0.6
2017-Oct-12 01:00N 33°45' W 118°12'1 1.2
2017-Oct-12 00:30N 33°45' W 118°13'0 0.0
2017-Oct-12 00:00N 33°45' W 118°13'0 0.6
2017-Oct-11 23:30N 33°45' W 118°13'0 0.5
2017-Oct-11 23:00N 33°45' W 118°13'1 1.4
2017-Oct-11 22:30N 33°45' W 118°13'1 2.1
2017-Oct-11 22:00N 33°45' W 118°14'0 0.1
2017-Oct-11 21:30N 33°45' W 118°14'1 2.3
2017-Oct-11 21:00N 33°45' W 118°13'1 1.9
2017-Oct-11 20:30N 33°45' W 118°13'0 0.1
2017-Oct-11 20:00N 33°45' W 118°13'0 0.4
2017-Oct-11 19:30N 33°46' W 118°13'0 0.0
2017-Oct-11 19:00N 33°46' W 118°13'0 0.0
2017-Oct-11 18:30N 33°46' W 118°13'0 0.0
2017-Oct-11 18:00N 33°46' W 118°13'0 0.0
2017-Oct-11 17:30N 33°46' W 118°13'0 0.0
2017-Oct-11 17:00N 33°46' W 118°13'1 0.1
2017-Oct-11 00:00N 33°45' W 118°13'3 5.6
2017-Oct-10 23:30N 33°43' W 118°11'1 1.3
2017-Oct-10 23:00N 33°42' W 118°10'4 7.9
2017-Oct-10 22:30N 33°45' W 118°13'1 1.8
2017-Oct-10 22:00N 33°46' W 118°13'0 0.0
2017-Oct-10 21:30N 33°46' W 118°13'0 0.0
2017-Oct-10 21:00N 33°46' W 118°13'0 0.0
2017-Oct-10 20:30N 33°46' W 118°13'0 0.0
2017-Oct-10 20:00N 33°46' W 118°13'0 0.0
2017-Oct-10 19:30N 33°46' W 118°13'0 0.0
2017-Oct-10 19:00N 33°46' W 118°13'0 0.0
2017-Oct-10 18:30N 33°46' W 118°13'0 0.0
2017-Oct-10 18:00N 33°46' W 118°13'0 0.4
2017-Oct-10 17:30N 33°46' W 118°13'0 1.0
2017-Oct-10 17:00N 33°46' W 118°13'2 3.3
2017-Oct-10 16:30N 33°44' W 118°12'1 1.1
2017-Oct-10 16:00N 33°44' W 118°12'1 1.1
2017-Oct-10 15:30N 33°44' W 118°12'1 1.0
2017-Oct-10 15:00N 33°44' W 118°12'1 0.6
2017-Oct-10 14:00N 33°44' W 118°12'0 0.0
2017-Oct-10 13:30N 33°44' W 118°12'0 0.0
2017-Oct-10 13:00N 33°44' W 118°12'0 0.0
2017-Oct-10 12:30N 33°44' W 118°12'0 0.0
2017-Oct-10 12:00N 33°44' W 118°12'0 0.0
2017-Oct-10 11:30N 33°44' W 118°12'0 0.0
2017-Oct-10 11:00N 33°44' W 118°12'0 0.1
2017-Oct-10 10:30N 33°44' W 118°12'1 1.0
2017-Oct-10 10:00N 33°44' W 118°12'1 2.1
2017-Oct-10 09:30N 33°45' W 118°13'0 0.0
2017-Oct-10 09:00N 33°45' W 118°13'0 0.0
2017-Oct-10 08:30N 33°45' W 118°13'0 0.0
2017-Oct-10 08:00N 33°45' W 118°13'0 0.0
2017-Oct-10 07:30N 33°45' W 118°13'0 0.0
2017-Oct-10 07:00N 33°45' W 118°13'2 3.9
2017-Oct-10 06:31N 33°46' W 118°15'1 2.0
2017-Oct-10 06:00N 33°45' W 118°16'3 5.4
2017-Oct-10 05:30N 33°43' W 118°14'3 6.1
2017-Oct-10 05:00N 33°46' W 118°13'0 0.9
2017-Oct-10 04:30N 33°46' W 118°13'0 0.0
2017-Oct-10 04:00N 33°46' W 118°13'0 0.0
2017-Oct-10 03:30N 33°46' W 118°13'0 0.0
2017-Oct-10 03:00N 33°46' W 118°13'0 0.0
2017-Oct-10 02:30N 33°46' W 118°13'1 2.8
2017-Oct-10 02:00N 33°45' W 118°12'2 3.9
2017-Oct-10 01:30N 33°43' W 118°14'3 5.1
2017-Oct-10 01:00N 33°45' W 118°16'1 2.0
2017-Oct-10 00:30N 33°46' W 118°16'1 2.2
2017-Oct-10 00:00N 33°46' W 118°14'2 3.9
2017-Oct-09 23:30N 33°46' W 118°17'0 0.4
2017-Oct-09 23:00N 33°45' W 118°17'1 2.4
2017-Oct-09 22:30N 33°46' W 118°15'0 0.1
2017-Oct-09 22:00N 33°46' W 118°15'2 3.3
2017-Oct-09 21:30N 33°45' W 118°16'0 0.1
2017-Oct-09 21:00N 33°45' W 118°16'0 0.2
2017-Oct-09 20:30N 33°45' W 118°16'2 4.9
2017-Oct-09 20:00N 33°43' W 118°15'3 5.7
2017-Oct-09 19:30N 33°45' W 118°13'0 0.0
2017-Oct-09 19:00N 33°45' W 118°13'0 0.4
2017-Oct-09 18:30N 33°45' W 118°13'2 3.7
2017-Oct-09 18:00N 33°43' W 118°14'0 0.2
2017-Oct-09 17:30N 33°43' W 118°14'2 4.9
2017-Oct-09 17:00N 33°46' W 118°13'0 0.3
2017-Oct-09 16:30N 33°46' W 118°13'0 0.1
2017-Oct-09 16:00N 33°46' W 118°13'1 2.5
2017-Oct-09 15:30N 33°46' W 118°14'1 2.3
2017-Oct-09 15:00N 33°46' W 118°16'0 0.0
2017-Oct-09 14:29N 33°46' W 118°16'0 0.2
2017-Oct-09 13:59N 33°46' W 118°16'0 0.0
2017-Oct-09 13:30N 33°46' W 118°16'2 3.6
2017-Oct-09 12:51N 33°46' W 118°13'0 1.1
2017-Oct-09 12:30N 33°46' W 118°13'2 3.1
2017-Oct-09 12:00N 33°45' W 118°13'1 2.1
2017-Oct-09 11:26N 33°44' W 118°12'3 6.2
2017-Oct-09 10:58N 33°46' W 118°14'1 2.2
2017-Oct-09 10:30N 33°46' W 118°15'0 0.8
2017-Oct-09 10:00N 33°46' W 118°15'1 3.0
2017-Oct-09 09:30N 33°46' W 118°13'0 0.6
2017-Oct-09 08:53N 33°46' W 118°13'0 0.0
2017-Oct-09 08:29N 33°46' W 118°13'0 0.0
2017-Oct-09 08:00N 33°46' W 118°13'0 0.0
2017-Oct-09 07:30N 33°46' W 118°13'0 0.0
2017-Oct-09 07:00N 33°46' W 118°13'0 0.0
2017-Oct-09 06:30N 33°46' W 118°13'0 0.0
2017-Oct-09 06:00N 33°46' W 118°13'0 0.0
2017-Oct-09 05:30N 33°46' W 118°13'0 0.0
2017-Oct-09 05:00N 33°46' W 118°13'0 0.0
2017-Oct-09 04:27N 33°46' W 118°13'0 0.0
2017-Oct-09 03:56N 33°46' W 118°13'0 0.0
2017-Oct-09 03:22N 33°46' W 118°13'1 3.2
2017-Oct-09 03:00N 33°46' W 118°15'1 2.1
2017-Oct-09 02:30N 33°46' W 118°16'0 0.0
2017-Oct-09 02:00N 33°46' W 118°16'0 0.0
2017-Oct-09 01:30N 33°46' W 118°16'0 0.0
2017-Oct-09 01:00N 33°46' W 118°16'0 0.0
2017-Oct-09 00:30N 33°46' W 118°16'0 0.0
2017-Oct-09 00:00N 33°46' W 118°16'0 0.0
2017-Oct-08 23:30N 33°46' W 118°16'0 0.3
2017-Oct-08 23:00N 33°46' W 118°16'0 1.0
2017-Oct-08 22:30N 33°45' W 118°16'2 3.1
2017-Oct-08 22:00N 33°44' W 118°16'2 3.8
2017-Oct-08 21:30N 33°43' W 118°14'3 6.6
2017-Oct-08 21:00N 33°46' W 118°13'0 0.8
2017-Oct-08 20:30N 33°46' W 118°13'0 0.0
2017-Oct-08 20:00N 33°46' W 118°13'0 0.0
2017-Oct-08 19:30N 33°46' W 118°13'0 0.0
2017-Oct-08 19:00N 33°46' W 118°13'0 0.1
2017-Oct-08 18:30N 33°46' W 118°13'1 1.2
2017-Oct-08 18:00N 33°46' W 118°13'0 0.4
2017-Oct-08 17:30N 33°46' W 118°13'0 0.0
2017-Oct-08 17:00N 33°46' W 118°13'0 0.0
2017-Oct-08 16:30N 33°46' W 118°13'0 0.0
2017-Oct-08 16:00N 33°46' W 118°13'0 0.0
2017-Oct-08 15:30N 33°46' W 118°13'0 0.0
2017-Oct-08 15:00N 33°46' W 118°13'0 0.0
2017-Oct-08 14:30N 33°46' W 118°13'0 0.0
2017-Oct-08 14:00N 33°46' W 118°13'0 0.0
2017-Oct-08 13:30N 33°46' W 118°13'0 0.0
2017-Oct-08 13:00N 33°46' W 118°13'2 3.2
2017-Oct-08 12:29N 33°44' W 118°12'1 1.2
2017-Oct-08 12:00N 33°45' W 118°12'0 0.6
2017-Oct-08 11:30N 33°44' W 118°12'0 0.0
2017-Oct-08 11:00N 33°44' W 118°12'0 0.0
2017-Oct-08 10:30N 33°44' W 118°12'0 0.0
2017-Oct-08 10:00N 33°44' W 118°12'1 1.4
2017-Oct-08 09:30N 33°45' W 118°12'0 0.2
2017-Oct-08 09:00N 33°45' W 118°12'2 3.4
2017-Oct-08 08:30N 33°43' W 118°11'0 0.1
2017-Oct-08 08:00N 33°44' W 118°11'3 5.2
2017-Oct-08 07:30N 33°46' W 118°13'0 0.3
2017-Oct-08 07:00N 33°46' W 118°13'0 0.0
2017-Oct-08 06:30N 33°46' W 118°13'0 0.0
2017-Oct-08 06:00N 33°46' W 118°13'0 0.0
2017-Oct-08 05:30N 33°46' W 118°13'0 0.0
2017-Oct-08 05:00N 33°46' W 118°13'0 0.0
2017-Oct-08 04:30N 33°46' W 118°13'0 0.0
2017-Oct-08 04:00N 33°46' W 118°13'0 0.0
2017-Oct-08 03:30N 33°46' W 118°13'0 0.0
2017-Oct-08 03:00N 33°46' W 118°13'0 0.0
2017-Oct-08 02:30N 33°46' W 118°13'0 0.0
2017-Oct-08 01:59N 33°46' W 118°13'0 0.0
2017-Oct-08 01:30N 33°46' W 118°13'0 0.9
2017-Oct-08 01:00N 33°46' W 118°13'3 5.3
2017-Oct-08 00:30N 33°45' W 118°16'0 0.0
2017-Oct-08 00:00N 33°45' W 118°16'0 0.0
2017-Oct-07 23:30N 33°45' W 118°16'0 0.0
2017-Oct-07 23:00N 33°45' W 118°16'0 0.0
2017-Oct-07 22:30N 33°45' W 118°16'0 0.0
2017-Oct-07 22:00N 33°45' W 118°16'0 0.0
2017-Oct-07 21:30N 33°45' W 118°16'0 0.0
2017-Oct-07 21:00N 33°45' W 118°16'0 0.0
2017-Oct-07 20:30N 33°45' W 118°16'0 0.0
2017-Oct-07 20:00N 33°45' W 118°16'1 1.1
2017-Oct-07 19:30N 33°46' W 118°17'0 0.0
2017-Oct-07 19:00N 33°46' W 118°17'0 0.0
2017-Oct-07 18:30N 33°46' W 118°17'0 0.0
2017-Oct-07 18:00N 33°46' W 118°17'2 3.1
2017-Oct-07 17:30N 33°46' W 118°15'1 2.6
2017-Oct-07 17:00N 33°46' W 118°13'0 0.0
2017-Oct-07 16:30N 33°46' W 118°13'0 0.0
2017-Oct-07 16:00N 33°46' W 118°13'3 5.5
2017-Oct-07 15:30N 33°43' W 118°14'3 5.1
2017-Oct-07 15:00N 33°45' W 118°16'1 1.4
2017-Oct-07 14:30N 33°46' W 118°17'0 0.0
2017-Oct-07 14:00N 33°46' W 118°17'0 0.3
2017-Oct-07 13:30N 33°46' W 118°17'0 0.0
2017-Oct-07 13:00N 33°46' W 118°17'0 0.0
2017-Oct-07 12:30N 33°46' W 118°17'0 0.0
2017-Oct-07 12:00N 33°46' W 118°17'0 0.0
2017-Oct-07 11:30N 33°46' W 118°17'0 0.0
2017-Oct-07 11:00N 33°46' W 118°17'2 4.4
2017-Oct-07 10:30N 33°43' W 118°16'1 2.9
2017-Oct-07 10:00N 33°45' W 118°16'0 0.2
2017-Oct-07 09:30N 33°45' W 118°16'1 1.7
2017-Oct-07 09:00N 33°46' W 118°17'1 1.6
2017-Oct-07 08:30N 33°46' W 118°16'1 1.9
2017-Oct-07 08:00N 33°45' W 118°16'2 3.0
2017-Oct-07 07:29N 33°44' W 118°15'  

Dump ship's entire track history